createdAt,value
2017-11-20T00:00:29.555Z,8.93
2017-11-20T00:03:02.974Z,8.93
2017-11-20T00:05:33.713Z,9.35
2017-11-20T00:08:05.655Z,9.70
2017-11-20T00:10:36.914Z,8.80
2017-11-20T00:13:08.673Z,8.43
2017-11-20T00:15:41.654Z,8.73
2017-11-20T00:18:14.535Z,9.27
2017-11-20T00:20:45.274Z,8.70
2017-11-20T00:23:18.674Z,9.55
2017-11-20T00:25:50.015Z,9.45
2017-11-20T00:28:20.334Z,9.15
2017-11-20T00:30:52.394Z,9.00
2017-11-20T00:33:23.135Z,8.80
2017-11-20T00:35:55.919Z,9.60
2017-11-20T00:38:27.861Z,8.68
2017-11-20T00:40:59.734Z,9.52
2017-11-20T00:43:30.275Z,8.25
2017-11-20T00:46:01.194Z,8.48
2017-11-20T00:48:33.675Z,8.55
2017-11-20T00:51:04.714Z,8.52
2017-11-20T00:53:37.503Z,9.10
2017-11-20T00:56:07.554Z,8.63
2017-11-20T00:58:39.275Z,8.05
2017-11-20T01:01:11.535Z,8.55
2017-11-20T01:03:44.214Z,8.77
2017-11-20T01:06:16.074Z,8.55
2017-11-20T01:08:47.835Z,8.95
2017-11-20T01:11:18.974Z,8.55
2017-11-20T01:13:50.414Z,8.57
2017-11-20T01:16:21.975Z,8.20
2017-11-20T01:18:53.534Z,7.60
2017-11-20T01:21:28.154Z,8.40
2017-11-20T01:23:58.675Z,8.38
2017-11-20T01:26:30.234Z,8.40
2017-11-20T01:29:02.393Z,9.25
2017-11-20T01:31:34.674Z,8.27
2017-11-20T01:34:05.575Z,8.80
2017-11-20T01:36:36.338Z,8.52
2017-11-20T01:39:13.434Z,15.07
2017-11-20T01:41:46.555Z,9.18
2017-11-20T01:44:23.081Z,9.18
2017-11-20T01:46:54.014Z,7.90
2017-11-20T01:49:25.473Z,7.95
2017-11-20T01:51:58.773Z,9.30
2017-11-20T01:54:34.215Z,8.93
2017-11-20T01:57:05.155Z,8.95
2017-11-20T01:59:37.114Z,8.80
2017-11-20T02:02:09.675Z,9.18
2017-11-20T02:04:41.756Z,9.70
2017-11-20T02:07:14.015Z,9.63
2017-11-20T02:09:45.974Z,9.75
2017-11-20T02:12:24.914Z,9.07
2017-11-20T02:14:56.475Z,9.43
2017-11-20T02:17:31.175Z,9.57
2017-11-20T02:20:02.595Z,9.10
2017-11-20T02:22:35.935Z,9.55
2017-11-20T02:25:06.855Z,9.70
2017-11-20T02:27:37.714Z,8.93
2017-11-20T02:30:11.715Z,8.68
2017-11-20T02:32:43.254Z,9.18
2017-11-20T02:35:16.555Z,9.65
2017-11-20T02:37:47.694Z,8.35
2017-11-20T02:40:20.076Z,8.52
2017-11-20T02:42:51.001Z,8.70
2017-11-20T02:45:22.614Z,8.95
2017-11-20T02:47:55.962Z,10.05
2017-11-20T02:50:28.013Z,9.40
2017-11-20T02:52:59.875Z,9.98
2017-11-20T02:55:32.034Z,11.60
2017-11-20T02:58:02.875Z,10.45
2017-11-20T03:00:33.294Z,11.00
2017-11-20T03:03:04.554Z,10.10
2017-11-20T03:05:36.314Z,11.27
2017-11-20T03:08:08.275Z,10.73
2017-11-20T03:10:41.576Z,10.77
2017-11-20T03:13:15.275Z,10.45
2017-11-20T03:15:47.580Z,10.40
2017-11-20T03:18:18.874Z,10.90
2017-11-20T03:20:50.595Z,10.27
2017-11-20T03:23:23.115Z,10.20
2017-11-20T03:25:54.554Z,10.27
2017-11-20T03:28:24.774Z,10.32
2017-11-20T03:30:56.736Z,9.98
2017-11-20T03:33:28.572Z,11.00
2017-11-20T03:36:00.176Z,11.30
2017-11-20T03:38:36.420Z,9.70
2017-11-20T03:41:10.334Z,10.63
2017-11-20T03:43:48.013Z,10.30
2017-11-20T03:46:21.413Z,9.95
2017-11-20T03:48:52.552Z,10.80
2017-11-20T03:51:24.572Z,10.35
2017-11-20T03:53:58.933Z,9.70
2017-11-20T03:56:35.513Z,10.23
2017-11-20T03:59:07.632Z,9.40
2017-11-20T04:01:40.452Z,8.90
2017-11-20T04:04:12.212Z,8.40
2017-11-20T04:06:43.352Z,8.63
2017-11-20T04:09:15.312Z,8.23
2017-11-20T04:11:47.591Z,9.40
2017-11-20T04:14:18.932Z,8.10
2017-11-20T04:16:50.292Z,7.25
2017-11-20T04:19:20.813Z,8.02
2017-11-20T04:21:52.472Z,6.90
2017-11-20T04:24:24.012Z,7.45
2017-11-20T04:26:54.592Z,7.68
2017-11-20T04:29:25.692Z,7.70
2017-11-20T04:31:57.452Z,7.72
2017-11-20T04:34:28.273Z,8.07
2017-11-20T04:36:59.571Z,8.88
2017-11-20T04:39:31.693Z,9.27
2017-11-20T04:42:04.612Z,9.15
2017-11-20T04:44:35.212Z,9.93
2017-11-20T04:47:06.972Z,10.25
2017-11-20T04:49:38.318Z,8.80
2017-11-20T04:52:10.980Z,9.23
2017-11-20T04:54:44.991Z,9.00
2017-11-20T04:57:16.552Z,9.20
2017-11-20T04:59:53.532Z,8.65
2017-11-20T05:02:26.592Z,8.07
2017-11-20T05:04:57.553Z,8.60
2017-11-20T05:07:27.632Z,7.93
2017-11-20T05:09:59.591Z,8.00
2017-11-20T05:12:34.052Z,7.35
2017-11-20T05:15:05.712Z,7.50
2017-11-20T05:17:36.452Z,7.93
2017-11-20T05:20:09.928Z,7.75
2017-11-20T05:22:40.560Z,8.68
2017-11-20T05:25:11.300Z,9.25
2017-11-20T05:27:43.980Z,8.77
2017-11-20T05:30:14.719Z,9.77
2017-11-20T05:32:46.607Z,8.30
2017-11-20T05:35:17.601Z,8.20
2017-11-20T05:37:50.600Z,8.52
2017-11-20T05:40:32.499Z,10.20
2017-11-20T05:43:03.541Z,7.82
2017-11-20T05:45:33.966Z,8.85
2017-11-20T05:48:07.261Z,7.60
2017-11-20T05:50:38.300Z,8.02
2017-11-20T05:53:11.620Z,7.60
2017-11-20T05:55:45.281Z,7.57
2017-11-20T05:58:17.041Z,8.57
2017-11-20T06:00:47.981Z,7.80
2017-11-20T06:03:19.941Z,11.88
2017-11-20T06:05:51.081Z,8.27
2017-11-20T06:08:25.001Z,8.13
2017-11-20T06:10:57.560Z,7.90
2017-11-20T06:13:27.580Z,9.55
2017-11-20T06:16:00.361Z,8.10
2017-11-20T06:18:31.960Z,9.57
2017-11-20T06:21:04.001Z,7.87
2017-11-20T06:23:35.940Z,7.85
2017-11-20T06:26:07.824Z,8.15
2017-11-20T06:28:39.061Z,8.88
2017-11-20T06:31:12.561Z,8.00
2017-11-20T06:33:44.920Z,8.13
2017-11-20T06:36:16.281Z,8.40
2017-11-20T06:38:47.919Z,8.13
2017-11-20T06:41:19.641Z,8.90
2017-11-20T06:43:51.140Z,10.35
2017-11-20T06:46:22.280Z,8.35
2017-11-20T06:48:54.040Z,8.30
2017-11-20T06:51:25.061Z,10.38
2017-11-20T06:53:55.899Z,10.55
2017-11-20T06:56:26.941Z,10.65
2017-11-20T06:58:58.641Z,8.77
2017-11-20T07:01:31.380Z,9.57
2017-11-20T07:04:02.120Z,9.45
2017-11-20T07:06:35.300Z,9.07
2017-11-20T07:09:07.381Z,7.82
2017-11-20T07:11:38.601Z,8.98
2017-11-20T07:14:10.880Z,8.55
2017-11-20T07:16:42.840Z,8.20
2017-11-20T07:19:14.300Z,8.40
2017-11-20T07:21:46.060Z,9.57
2017-11-20T07:24:17.621Z,8.07
2017-11-20T07:27:05.740Z,6.87
2017-11-20T07:29:51.340Z,6.68
2017-11-20T07:32:22.261Z,6.57
2017-11-20T07:34:58.347Z,6.87
2017-11-20T07:37:41.340Z,7.05
2017-11-20T07:40:23.620Z,5.30
2017-11-20T07:42:56.441Z,7.40
2017-11-20T07:45:28.501Z,6.40
2017-11-20T07:48:00.460Z,5.60
2017-11-20T07:50:33.041Z,6.45
2017-11-20T07:53:04.884Z,7.10
2017-11-20T07:55:35.957Z,6.93
2017-11-20T07:58:08.100Z,6.30
2017-11-20T08:00:38.620Z,9.63
2017-11-20T08:03:11.724Z,5.93
2017-11-20T08:05:45.816Z,5.32
2017-11-20T08:08:17.383Z,5.53
2017-11-20T08:10:48.837Z,4.95
2017-11-20T08:13:20.176Z,4.30
2017-11-20T08:15:54.376Z,9.15
2017-11-20T08:18:26.076Z,5.15
2017-11-20T08:20:56.996Z,6.10
2017-11-20T08:23:28.736Z,5.22
2017-11-20T08:26:02.457Z,8.07
2017-11-20T08:28:34.096Z,5.25
2017-11-20T08:31:06.177Z,8.10
2017-11-20T08:33:39.639Z,6.97
2017-11-20T08:36:11.320Z,5.75
2017-11-20T08:38:48.628Z,5.85
2017-11-20T08:41:20.628Z,5.05
2017-11-20T08:43:53.230Z,4.50
2017-11-20T08:46:24.281Z,4.65
2017-11-20T08:48:55.120Z,5.80
2017-11-20T08:51:26.761Z,5.37
2017-11-20T08:53:58.121Z,5.00
2017-11-20T08:56:29.980Z,6.50
2017-11-20T08:59:01.941Z,6.10
2017-11-20T09:01:33.801Z,5.80
2017-11-20T09:04:06.641Z,5.22
2017-11-20T09:06:38.242Z,5.45
2017-11-20T09:09:09.984Z,5.25
2017-11-20T09:11:40.941Z,5.05
2017-11-20T09:14:12.668Z,5.78
2017-11-20T09:16:43.940Z,4.65
2017-11-20T09:19:15.901Z,4.72
2017-11-20T09:21:48.166Z,4.90
2017-11-20T09:24:20.221Z,4.90
2017-11-20T09:26:52.182Z,5.50
2017-11-20T09:29:25.081Z,5.43
2017-11-20T09:31:58.885Z,5.25
2017-11-20T09:34:30.334Z,6.03
2017-11-20T09:37:03.106Z,5.60
2017-11-20T09:39:34.454Z,5.60
2017-11-20T09:42:06.841Z,5.93
2017-11-20T09:44:38.893Z,5.90
2017-11-20T09:47:10.553Z,7.00
2017-11-20T09:49:41.076Z,5.25
2017-11-20T09:52:12.636Z,7.28
2017-11-20T09:54:45.514Z,7.07
2017-11-20T09:57:17.474Z,8.30
2017-11-20T09:59:50.873Z,5.97
2017-11-20T10:02:21.593Z,5.70
2017-11-20T10:04:52.134Z,5.53
2017-11-20T10:07:23.634Z,5.43
2017-11-20T10:09:55.034Z,5.78
2017-11-20T10:12:26.633Z,4.87
2017-11-20T10:14:57.913Z,5.82
2017-11-20T10:17:29.629Z,6.87
2017-11-20T10:20:00.707Z,6.12
2017-11-20T10:22:33.808Z,5.30
2017-11-20T10:25:08.231Z,4.97
2017-11-20T10:27:39.989Z,5.25
2017-11-20T10:30:11.754Z,5.65
2017-11-20T10:32:42.993Z,5.45
2017-11-20T10:35:14.849Z,7.20
2017-11-20T10:37:49.068Z,6.15
2017-11-20T10:40:21.748Z,5.45
2017-11-20T10:42:55.028Z,5.75
2017-11-20T10:45:27.408Z,7.55
2017-11-20T10:48:01.035Z,5.93
2017-11-20T10:50:32.454Z,5.32
2017-11-20T10:53:04.314Z,5.45
2017-11-20T10:55:39.554Z,5.40
2017-11-20T10:58:13.576Z,5.75
2017-11-20T11:00:44.674Z,6.03
2017-11-20T11:03:16.977Z,6.40
2017-11-20T11:05:49.134Z,10.18
2017-11-20T11:08:21.113Z,7.15
2017-11-20T11:10:55.674Z,6.35
2017-11-20T11:13:26.974Z,6.80
2017-11-20T11:15:59.134Z,6.03
2017-11-20T11:18:30.274Z,6.03
2017-11-20T11:21:02.554Z,5.65
2017-11-20T11:23:35.228Z,7.60
2017-11-20T11:26:06.578Z,5.30
2017-11-20T11:28:37.416Z,5.40
2017-11-20T11:31:09.627Z,6.70
2017-11-20T11:33:44.915Z,6.03
2017-11-20T11:36:16.541Z,6.60
2017-11-20T11:38:48.334Z,9.27
2017-11-20T11:41:20.915Z,6.85
2017-11-20T11:43:53.077Z,7.07
2017-11-20T11:46:24.014Z,7.30
2017-11-20T11:48:56.195Z,7.30
2017-11-20T11:51:27.214Z,5.60
2017-11-20T11:53:58.977Z,5.90
2017-11-20T11:56:30.114Z,5.85
2017-11-20T11:59:01.375Z,6.82
2017-11-20T12:01:32.654Z,6.87
2017-11-20T12:04:03.756Z,6.20
2017-11-20T12:06:35.716Z,6.90
2017-11-20T12:09:07.473Z,5.60
2017-11-20T12:11:41.993Z,6.43
2017-11-20T12:14:13.752Z,10.40
2017-11-20T12:16:48.172Z,6.87
2017-11-20T12:19:20.434Z,7.00
2017-11-20T12:21:54.258Z,6.30
2017-11-20T12:24:29.639Z,6.85
2017-11-20T12:27:00.114Z,6.25
2017-11-20T12:29:33.302Z,5.97
2017-11-20T12:32:09.652Z,8.55
2017-11-20T12:34:41.232Z,6.78
2017-11-20T12:37:13.652Z,6.10
2017-11-20T12:39:45.972Z,7.78
2017-11-20T12:42:17.015Z,5.72
2017-11-20T12:44:47.953Z,5.95
2017-11-20T12:47:19.912Z,7.30
2017-11-20T12:49:51.772Z,6.60
2017-11-20T12:52:23.012Z,5.10
2017-11-20T12:54:54.360Z,4.75
2017-11-20T12:57:27.697Z,8.30
2017-11-20T12:59:58.990Z,4.68
2017-11-20T13:02:30.260Z,5.03
2017-11-20T13:05:03.951Z,3.85
2017-11-20T13:07:39.291Z,3.20
2017-11-20T13:10:10.695Z,6.90
2017-11-20T13:12:41.975Z,4.90
2017-11-20T13:15:14.051Z,3.90
2017-11-20T13:17:46.010Z,4.50
2017-11-20T13:20:21.226Z,4.40
2017-11-20T13:22:52.796Z,6.72
2017-11-20T13:25:23.718Z,4.35
2017-11-20T13:27:56.018Z,6.50
2017-11-20T13:30:27.757Z,6.85
2017-11-20T13:32:58.817Z,5.25
2017-11-20T13:35:30.658Z,5.70
2017-11-20T13:38:05.078Z,7.45
2017-11-20T13:40:36.938Z,11.12
2017-11-20T13:43:11.157Z,7.12
2017-11-20T13:45:42.657Z,14.85
2017-11-20T13:48:14.258Z,7.68
2017-11-20T13:50:46.117Z,5.70
2017-11-20T13:53:17.657Z,5.82
2017-11-20T13:55:48.199Z,4.97
2017-11-20T13:58:20.159Z,4.70
2017-11-20T14:00:52.244Z,5.45
2017-11-20T14:03:27.981Z,5.80
2017-11-20T14:06:02.660Z,5.32
2017-11-20T14:08:34.780Z,5.78
2017-11-20T14:11:07.741Z,5.00
2017-11-20T14:13:40.122Z,5.65
2017-11-20T14:16:11.659Z,5.10
2017-11-20T14:18:44.151Z,5.90
2017-11-20T14:21:16.003Z,7.60
2017-11-20T14:23:47.761Z,5.85
2017-11-20T14:26:19.229Z,5.40
2017-11-20T14:28:50.573Z,5.70
2017-11-20T14:31:23.548Z,5.95
2017-11-20T14:33:55.669Z,6.15
2017-11-20T14:36:27.168Z,9.48
2017-11-20T14:38:59.247Z,6.15
2017-11-20T14:41:31.669Z,6.97
2017-11-20T14:44:03.967Z,7.62
2017-11-20T14:46:35.648Z,5.28
2017-11-20T14:49:08.007Z,6.35
2017-11-20T14:51:48.047Z,7.07
2017-11-20T14:54:22.367Z,5.72
2017-11-20T14:56:54.228Z,7.10
2017-11-20T14:59:26.387Z,6.07
2017-11-20T15:01:58.347Z,7.28
2017-11-20T15:04:33.388Z,8.40
2017-11-20T15:07:04.707Z,8.75
2017-11-20T15:09:37.307Z,6.22
2017-11-20T15:12:12.147Z,6.00
2017-11-20T15:14:43.675Z,6.12
2017-11-20T15:17:17.508Z,7.85
2017-11-20T15:19:49.468Z,7.75
2017-11-20T15:22:23.268Z,6.25
2017-11-20T15:24:55.327Z,7.72
2017-11-20T15:27:28.009Z,7.53
2017-11-20T15:30:04.069Z,7.60
2017-11-20T15:32:35.826Z,8.43
2017-11-20T15:35:07.888Z,8.25
2017-11-20T15:37:38.687Z,7.12
2017-11-20T15:40:11.207Z,6.55
2017-11-20T15:42:42.969Z,6.20
2017-11-20T15:45:17.687Z,7.20
2017-11-20T15:47:50.368Z,7.22
2017-11-20T15:50:21.808Z,6.03
2017-11-20T15:52:56.232Z,6.25
2017-11-20T15:55:28.307Z,6.07
2017-11-20T15:57:59.449Z,6.78
2017-11-20T16:00:31.688Z,6.57
2017-11-20T16:03:02.727Z,6.97
2017-11-20T16:05:34.291Z,6.90
2017-11-20T16:08:05.689Z,7.15
2017-11-20T16:10:37.407Z,9.35
2017-11-20T16:13:10.711Z,7.25
2017-11-20T16:15:41.688Z,9.60
2017-11-20T16:18:20.687Z,7.18
2017-11-20T16:20:53.127Z,6.12
2017-11-20T16:23:23.729Z,6.20
2017-11-20T16:25:58.187Z,4.93
2017-11-20T16:28:30.047Z,4.20
2017-11-20T16:31:01.188Z,3.50
2017-11-20T16:33:32.527Z,3.05
2017-11-20T16:36:04.407Z,2.80
2017-11-20T16:38:36.168Z,4.22
2017-11-20T16:41:08.228Z,5.18
2017-11-20T16:43:43.347Z,2.62
2017-11-20T16:46:14.807Z,2.83
2017-11-20T16:48:47.774Z,2.50
2017-11-20T16:51:20.068Z,2.30
2017-11-20T16:53:51.307Z,2.58
2017-11-20T16:56:22.147Z,2.87
2017-11-20T16:59:00.147Z,3.40
2017-11-20T17:01:45.707Z,4.15
2017-11-20T17:04:18.013Z,3.28
2017-11-20T17:06:49.454Z,9.35
2017-11-20T17:09:24.688Z,5.47
2017-11-20T17:12:03.700Z,4.43
2017-11-20T17:14:35.367Z,4.90
2017-11-20T17:17:07.448Z,4.82
2017-11-20T17:19:40.099Z,5.93
2017-11-20T17:22:12.269Z,5.53
2017-11-20T17:24:43.620Z,4.60
2017-11-20T17:27:17.680Z,5.90
2017-11-20T17:29:52.560Z,7.05
2017-11-20T17:32:22.681Z,6.35
2017-11-20T17:34:53.200Z,6.97
2017-11-20T17:37:24.469Z,4.82
2017-11-20T17:39:56.000Z,6.70
2017-11-20T17:42:27.140Z,7.00
2017-11-20T17:44:59.000Z,6.87
2017-11-20T17:47:29.540Z,6.00
2017-11-20T17:50:01.903Z,6.60
2017-11-20T17:52:37.559Z,5.20
2017-11-20T17:55:10.243Z,7.40
2017-11-20T17:57:43.020Z,7.05
2017-11-20T18:00:18.169Z,6.90
2017-11-20T18:02:50.007Z,5.80
2017-11-20T18:05:21.999Z,5.82
2017-11-20T18:07:52.720Z,8.98
2017-11-20T18:10:23.699Z,6.15
2017-11-20T18:12:56.219Z,6.75
2017-11-20T18:15:27.259Z,6.93
2017-11-20T18:17:59.341Z,7.00
2017-11-20T18:20:30.279Z,5.90
2017-11-20T18:23:01.820Z,6.90
2017-11-20T18:25:34.300Z,6.50
2017-11-20T18:28:11.723Z,5.87
2017-11-20T18:30:45.081Z,6.40
2017-11-20T18:33:16.018Z,6.93
2017-11-20T18:35:47.359Z,5.93
2017-11-20T18:38:18.799Z,5.53
2017-11-20T18:40:49.840Z,6.05
2017-11-20T18:43:24.719Z,6.82
2017-11-20T18:45:57.259Z,6.35
2017-11-20T18:48:29.420Z,6.45
2017-11-20T18:51:01.280Z,6.10
2017-11-20T18:53:32.419Z,6.25
2017-11-20T18:56:04.300Z,5.53
2017-11-20T18:58:36.241Z,5.85
2017-11-20T19:01:22.539Z,6.22
2017-11-20T19:04:05.261Z,5.37
2017-11-20T19:06:47.880Z,5.60
2017-11-20T19:09:20.240Z,6.20
2017-11-20T19:11:51.898Z,5.82
2017-11-20T19:14:24.260Z,6.47
2017-11-20T19:16:55.299Z,5.50
2017-11-20T19:19:28.388Z,8.43
2017-11-20T19:22:01.279Z,6.60
2017-11-20T19:24:33.140Z,7.00
2017-11-20T19:27:04.279Z,6.55
2017-11-20T19:29:42.179Z,7.28
2017-11-20T19:32:13.639Z,5.35
2017-11-20T19:34:45.279Z,5.12
2017-11-20T19:37:17.160Z,5.55
2017-11-20T19:39:49.100Z,4.50
2017-11-20T19:42:20.139Z,6.40
2017-11-20T19:44:54.459Z,4.57
2017-11-20T19:47:28.563Z,4.37
2017-11-20T19:50:00.140Z,5.78
2017-11-20T19:52:31.988Z,4.70
2017-11-20T19:55:04.060Z,4.82
2017-11-20T19:57:36.119Z,4.37
2017-11-20T20:00:08.580Z,4.95
2017-11-20T20:02:40.560Z,4.18
2017-11-20T20:05:11.899Z,4.90
2017-11-20T20:07:44.059Z,4.25
2017-11-20T20:10:21.720Z,4.60
2017-11-20T20:12:53.199Z,3.92
2017-11-20T20:15:38.298Z,4.53
2017-11-20T20:18:12.100Z,3.97
2017-11-20T20:20:44.879Z,3.67
2017-11-20T20:23:17.425Z,3.80
2017-11-20T20:25:48.164Z,3.72
2017-11-20T20:28:20.144Z,3.80
2017-11-20T20:30:53.124Z,5.95
2017-11-20T20:33:24.886Z,3.33
2017-11-20T20:35:56.844Z,4.00
2017-11-20T20:38:28.506Z,4.10
2017-11-20T20:40:59.645Z,4.10
2017-11-20T20:43:33.845Z,4.18
2017-11-20T20:46:06.524Z,6.43
2017-11-20T20:48:38.704Z,6.15
2017-11-20T20:51:09.724Z,11.98
2017-11-20T20:53:42.364Z,3.87
2017-11-20T20:56:14.386Z,3.20
2017-11-20T20:58:45.725Z,3.55
2017-11-20T21:01:17.904Z,4.03
2017-11-20T21:03:50.065Z,3.78
2017-11-20T21:06:21.784Z,6.90
2017-11-20T21:08:53.154Z,3.50
2017-11-20T21:11:30.165Z,3.70
2017-11-20T21:14:02.231Z,3.40
2017-11-20T21:16:34.084Z,3.10
2017-11-20T21:19:05.324Z,3.15
2017-11-20T21:21:39.424Z,3.10
2017-11-20T21:24:15.486Z,3.20
2017-11-20T21:26:47.644Z,4.00
2017-11-20T21:29:18.745Z,4.30
2017-11-20T21:31:53.924Z,3.45
2017-11-20T21:34:26.425Z,3.60
2017-11-20T21:37:00.104Z,3.90
2017-11-20T21:39:31.344Z,4.62
2017-11-20T21:42:03.104Z,3.53
2017-11-20T21:44:35.487Z,3.60
2017-11-20T21:47:06.425Z,3.80
2017-11-20T21:49:42.784Z,4.00
2017-11-20T21:52:21.744Z,4.20
2017-11-20T21:54:53.746Z,5.05
2017-11-20T21:57:25.825Z,4.90
2017-11-20T21:59:56.888Z,4.05
2017-11-20T22:02:28.849Z,20.20
2017-11-20T22:05:00.085Z,6.10
2017-11-20T22:07:32.365Z,4.20
2017-11-20T22:10:03.304Z,4.65
2017-11-20T22:12:57.744Z,3.90
2017-11-20T22:15:29.444Z,3.80
2017-11-20T22:18:02.211Z,3.67
2017-11-20T22:20:34.284Z,3.60
2017-11-20T22:23:07.584Z,4.40
2017-11-20T22:25:38.604Z,3.37
2017-11-20T22:28:11.204Z,3.50
2017-11-20T22:30:41.771Z,3.92
2017-11-20T22:33:12.745Z,3.47
2017-11-20T22:35:44.724Z,4.40
2017-11-20T22:38:16.605Z,7.10
2017-11-20T22:40:49.266Z,3.53
2017-11-20T22:43:26.542Z,3.47
2017-11-20T22:46:00.838Z,3.65
2017-11-20T22:48:37.021Z,3.50
2017-11-20T22:51:10.102Z,3.35
2017-11-20T22:53:41.178Z,3.67
2017-11-20T22:56:13.118Z,3.20
2017-11-20T22:58:43.737Z,3.35
2017-11-20T23:01:14.677Z,3.25
2017-11-20T23:03:45.197Z,4.53
2017-11-20T23:06:17.057Z,2.80
2017-11-20T23:08:49.958Z,3.20
2017-11-20T23:11:20.758Z,2.90
2017-11-20T23:13:53.056Z,3.30
2017-11-20T23:16:26.337Z,3.15
2017-11-20T23:18:58.097Z,3.12
2017-11-20T23:21:29.037Z,3.33
2017-11-20T23:23:59.357Z,2.95
2017-11-20T23:26:36.348Z,3.10
2017-11-20T23:29:13.739Z,3.00
2017-11-20T23:31:45.498Z,3.28
2017-11-20T23:34:18.757Z,3.40
2017-11-20T23:36:51.682Z,2.90
2017-11-20T23:39:24.057Z,2.90
2017-11-20T23:41:55.597Z,4.05
2017-11-20T23:44:29.497Z,3.25
2017-11-20T23:47:00.957Z,3.35
2017-11-20T23:49:31.678Z,4.22
2017-11-20T23:52:03.558Z,3.80
2017-11-20T23:54:40.217Z,3.47
2017-11-20T23:57:12.178Z,3.25
2017-11-20T23:59:45.558Z,3.05
